NCAR-RAP Real-Time Weather Data

Output produced by METARs form (08 May 2021  01:51 UTC)
found at http://weather.rap.ucar.edu/surface/
 
KMKE 080052Z 03004KT 10SM FEW045 SCT080 05/01 A3006 RMK AO2 SLP184 T00500011
KMKE 072352Z 03009KT 10SM FEW060 BKN080 07/02 A3006 RMK AO2 SLP184 T00670022 10128 20061 53007
KMKE 072252Z 03010KT 10SM FEW015 SCT060 BKN070 06/03 A3006 RMK AO2 SLP183 T00610028
KMKE 072152Z 03011KT 10SM FEW010 BKN060 BKN080 07/03 A3005 RMK AO2 SLP180 T00720028
KMKE 072052Z 04013KT 10SM FEW020 SCT060 BKN075 07/03 A3004 RMK AO2 WSHFT 1951 SLP178 T00670028 53014
KMKE 072011Z 03015G23KT 10SM SCT060 OVC075 09/02 A3003 RMK AO2 WSHFT 1951 T00890022
KMKE 071952Z 30015G23KT 10SM SCT060 BKN075 12/M02 A3001 RMK AO2 SLP167 T01171022
KMKE 071852Z 31013G21KT 10SM BKN055 BKN070 13/M01 A3001 RMK AO2 PK WND 32026/1756 SLP163 T01281011
KMKE 071752Z 34015G25KT 10SM SCT048 BKN060 12/M01 A3000 RMK AO2 PK WND 31029/1723 SLP163 T01171011 10122 20094 53008
KMKE 071652Z 32018G24KT 10SM SCT050 12/00 A3000 RMK AO2 PK WND 32031/1606 SLP160 T01170000
KMKE 071552Z 31012G24KT 10SM SCT046 12/M01 A2998 RMK AO2 PK WND 31027/1537 SLP154 T01221006
KMKE 071452Z 30011G23KT 10SM SCT035 11/00 A2998 RMK AO2 SLP155 T01060000 51005
KMKE 071352Z 31012G19KT 10SM FEW023 11/02 A2998 RMK AO2 SLP154 T01060017
KMKE 071252Z 31012G20KT 10SM SCT020 10/03 A2998 RMK AO2 SLP154 T01000028
KMKE 071152Z 29006KT 10SM FEW060 SCT080 09/02 A2996 RMK AO2 SLP148 60000 70017 T00940022 10094 20067 53004
KMKE 071052Z 26005KT 10SM BKN080 BKN120 09/01 A2995 RMK AO2 RAB13E29 SLP143 P0000 T00940011